createdAt,value
2023-06-27T00:00:01.275Z,20.72
2023-06-27T00:03:04.184Z,20.84
2023-06-27T00:06:07.061Z,20.87
2023-06-27T00:09:10.863Z,21.01
2023-06-27T00:12:15.094Z,21.10
2023-06-27T00:15:20.223Z,21.11
2023-06-27T00:18:24.211Z,21.12
2023-06-27T00:21:30.082Z,21.15
2023-06-27T00:24:32.997Z,21.16
2023-06-27T00:27:37.368Z,21.17
2023-06-27T00:30:40.457Z,21.17
2023-06-27T00:33:43.143Z,21.22
2023-06-27T00:36:45.998Z,21.24
2023-06-27T00:39:48.941Z,21.23
2023-06-27T00:42:53.182Z,21.28
2023-06-27T00:45:56.155Z,21.28
2023-06-27T00:48:58.972Z,21.28
2023-06-27T00:52:01.924Z,21.29
2023-06-27T00:55:05.195Z,21.31
2023-06-27T00:58:11.300Z,21.29
2023-06-27T01:01:14.229Z,21.31
2023-06-27T01:04:17.132Z,21.28
2023-06-27T01:07:24.919Z,21.29
2023-06-27T01:10:31.239Z,21.30
2023-06-27T01:13:38.872Z,21.31
2023-06-27T01:16:42.227Z,21.33
2023-06-27T01:19:45.607Z,21.40
2023-06-27T01:22:52.769Z,21.44
2023-06-27T01:26:02.587Z,21.48
2023-06-27T01:29:05.402Z,21.41
2023-06-27T01:32:11.422Z,21.40
2023-06-27T01:35:17.741Z,21.42
2023-06-27T01:38:22.616Z,21.41
2023-06-27T01:41:29.995Z,21.42
2023-06-27T01:44:34.364Z,21.42
2023-06-27T01:47:38.651Z,21.43
2023-06-27T01:50:41.417Z,21.43
2023-06-27T01:53:44.213Z,21.43
2023-06-27T01:56:48.328Z,21.43
2023-06-27T01:59:51.109Z,21.43
2023-06-27T02:02:53.892Z,21.43
2023-06-27T02:05:56.661Z,21.44
2023-06-27T02:08:59.426Z,21.44
2023-06-27T02:12:05.415Z,21.43
2023-06-27T02:15:08.887Z,21.42
2023-06-27T02:18:11.779Z,21.43
2023-06-27T02:21:14.630Z,21.43
2023-06-27T02:24:17.955Z,21.41
2023-06-27T02:27:22.068Z,21.42
2023-06-27T02:30:24.870Z,21.42
2023-06-27T02:33:27.683Z,21.42
2023-06-27T02:36:30.581Z,21.43
2023-06-27T02:39:33.360Z,21.43
2023-06-27T02:42:37.534Z,21.43
2023-06-27T02:45:41.795Z,21.44
2023-06-27T02:48:44.819Z,21.47
2023-06-27T02:51:47.606Z,21.45
2023-06-27T02:54:50.716Z,21.45
2023-06-27T02:57:54.785Z,21.46
2023-06-27T03:00:57.595Z,21.47
2023-06-27T03:04:17.180Z,21.47
2023-06-27T03:07:21.112Z,21.47
2023-06-27T03:10:23.885Z,21.45
2023-06-27T03:13:28.012Z,21.44
2023-06-27T03:16:30.719Z,21.44
2023-06-27T03:19:43.953Z,21.45
2023-06-27T03:22:48.123Z,21.45
2023-06-27T03:25:50.892Z,21.44
2023-06-27T03:28:55.025Z,21.45
2023-06-27T03:31:58.806Z,21.44
2023-06-27T03:35:01.759Z,21.44
2023-06-27T03:38:04.681Z,21.45
2023-06-27T03:41:07.527Z,21.45
2023-06-27T03:44:11.709Z,21.48
2023-06-27T03:47:14.653Z,21.45
2023-06-27T03:50:17.353Z,21.47
2023-06-27T03:53:20.076Z,21.45
2023-06-27T03:56:22.838Z,21.45
2023-06-27T03:59:27.044Z,21.44
2023-06-27T04:02:29.822Z,21.45
2023-06-27T04:05:32.548Z,21.45
2023-06-27T04:08:35.365Z,21.43
2023-06-27T04:11:38.119Z,21.43
2023-06-27T04:14:42.273Z,21.44
2023-06-27T04:17:46.218Z,21.43
2023-06-27T04:20:49.060Z,21.42
2023-06-27T04:23:51.974Z,21.41
2023-06-27T04:26:54.749Z,21.42
2023-06-27T04:29:59.266Z,21.42
2023-06-27T04:33:04.364Z,21.42
2023-06-27T04:36:07.671Z,21.43
2023-06-27T04:39:10.718Z,21.40
2023-06-27T04:42:13.558Z,21.39
2023-06-27T04:45:17.755Z,21.40
2023-06-27T04:48:20.507Z,21.39
2023-06-27T04:51:23.236Z,21.39
2023-06-27T04:54:26.103Z,21.36
2023-06-27T04:57:28.800Z,21.39
2023-06-27T05:00:33.109Z,21.38
2023-06-27T05:03:39.674Z,21.40
2023-06-27T05:06:42.514Z,21.42
2023-06-27T05:09:45.356Z,21.38
2023-06-27T05:12:48.089Z,21.34
2023-06-27T05:15:52.166Z,21.36
2023-06-27T05:18:54.957Z,21.34
2023-06-27T05:21:57.705Z,21.30
2023-06-27T05:25:00.878Z,21.28
2023-06-27T05:28:03.779Z,21.31
2023-06-27T05:31:08.058Z,21.29
2023-06-27T05:34:10.978Z,21.27
2023-06-27T05:37:13.798Z,21.28
2023-06-27T05:40:16.576Z,21.24
2023-06-27T05:43:19.328Z,21.23
2023-06-27T05:46:23.499Z,21.24
2023-06-27T05:49:26.179Z,21.24
2023-06-27T05:52:30.621Z,21.26
2023-06-27T05:55:33.419Z,21.24
2023-06-27T05:58:36.627Z,21.28
2023-06-27T06:01:40.790Z,21.27
2023-06-27T06:04:43.589Z,21.29
2023-06-27T06:07:46.776Z,21.28
2023-06-27T06:10:51.486Z,21.29
2023-06-27T06:13:54.282Z,21.29
2023-06-27T06:16:58.517Z,21.29
2023-06-27T06:20:01.352Z,21.26
2023-06-27T06:23:04.222Z,21.27
2023-06-27T06:26:06.978Z,21.25
2023-06-27T06:29:14.178Z,21.28
2023-06-27T06:32:18.468Z,21.20
2023-06-27T06:35:21.388Z,21.20
2023-06-27T06:38:24.202Z,21.23
2023-06-27T06:41:26.969Z,21.23
2023-06-27T06:44:32.616Z,21.23
2023-06-27T06:47:36.990Z,21.24
2023-06-27T06:50:39.773Z,21.23
2023-06-27T06:53:42.522Z,21.23
2023-06-27T06:56:45.332Z,21.22
2023-06-27T06:59:48.055Z,21.24
2023-06-27T07:02:52.318Z,21.26
2023-06-27T07:05:55.198Z,21.25
2023-06-27T07:08:58.003Z,21.28
2023-06-27T07:12:00.769Z,21.30
2023-06-27T07:15:03.542Z,21.30
2023-06-27T07:18:07.770Z,21.29
2023-06-27T07:21:10.552Z,21.30
2023-06-27T07:24:13.423Z,21.29
2023-06-27T07:27:16.286Z,21.28
2023-06-27T07:30:19.217Z,21.28
2023-06-27T07:33:23.931Z,21.25
2023-06-27T07:36:28.101Z,21.21
2023-06-27T07:39:30.883Z,21.19
2023-06-27T07:42:33.656Z,21.17
2023-06-27T07:45:36.435Z,21.21
2023-06-27T07:48:40.530Z,21.23
2023-06-27T07:51:43.402Z,21.22
2023-06-27T07:54:46.206Z,21.19
2023-06-27T07:57:48.991Z,21.16
2023-06-27T08:00:51.795Z,21.19
2023-06-27T08:03:56.116Z,21.21
2023-06-27T08:06:59.029Z,21.23
2023-06-27T08:10:01.751Z,21.21
2023-06-27T08:13:06.355Z,21.22
2023-06-27T08:16:09.515Z,21.21
2023-06-27T08:19:14.284Z,21.18
2023-06-27T08:22:17.022Z,21.17
2023-06-27T08:25:19.840Z,21.15
2023-06-27T08:28:22.609Z,21.17
2023-06-27T08:31:25.576Z,21.20
2023-06-27T08:34:33.102Z,21.22
2023-06-27T08:37:36.188Z,21.23
2023-06-27T08:40:39.330Z,21.25
2023-06-27T08:43:42.262Z,21.21
2023-06-27T08:46:45.303Z,21.18
2023-06-27T08:49:51.276Z,21.17
2023-06-27T08:52:56.991Z,21.16
2023-06-27T08:56:01.888Z,21.20
2023-06-27T08:59:08.504Z,21.19
2023-06-27T09:02:13.759Z,21.23
2023-06-27T09:05:18.045Z,21.24
2023-06-27T09:08:21.380Z,21.27
2023-06-27T09:11:24.408Z,21.26
2023-06-27T09:14:27.196Z,21.27
2023-06-27T09:17:30.023Z,21.19
2023-06-27T09:20:34.311Z,21.14
2023-06-27T09:23:37.268Z,21.16
2023-06-27T09:26:40.088Z,21.12
2023-06-27T09:29:45.596Z,21.12
2023-06-27T09:32:55.421Z,21.18
2023-06-27T09:36:02.315Z,21.18
2023-06-27T09:39:06.513Z,21.20
2023-06-27T09:42:09.518Z,21.21
2023-06-27T09:45:14.890Z,21.20
2023-06-27T09:48:19.643Z,21.21
2023-06-27T09:51:27.238Z,21.22
2023-06-27T09:54:29.967Z,21.21
2023-06-27T09:57:32.675Z,21.20
2023-06-27T10:00:35.528Z,21.21
2023-06-27T10:03:38.619Z,21.19
2023-06-27T10:06:43.989Z,21.19
2023-06-27T10:09:47.154Z,21.16
2023-06-27T10:12:50.938Z,21.20
2023-06-27T10:15:53.762Z,21.19
2023-06-27T10:18:56.870Z,21.24
2023-06-27T10:22:02.767Z,21.26
2023-06-27T10:25:07.129Z,21.24
2023-06-27T10:28:10.798Z,21.24
2023-06-27T10:31:34.111Z,21.20
2023-06-27T10:34:40.241Z,21.22
2023-06-27T10:37:44.421Z,21.20
2023-06-27T10:41:06.856Z,21.22
2023-06-27T10:44:13.847Z,21.25
2023-06-27T10:47:31.301Z,21.30
2023-06-27T10:50:36.509Z,21.26
2023-06-27T10:53:43.570Z,21.29
2023-06-27T10:56:47.103Z,21.36
2023-06-27T10:59:54.394Z,21.33
2023-06-27T11:02:58.342Z,21.35
2023-06-27T11:06:01.369Z,21.33
2023-06-27T11:09:05.860Z,21.40
2023-06-27T11:12:12.971Z,21.40
2023-06-27T11:15:15.830Z,21.43
2023-06-27T11:18:19.625Z,21.44
2023-06-27T11:21:23.878Z,21.47
2023-06-27T11:24:28.219Z,21.42
2023-06-27T11:27:31.297Z,21.43
2023-06-27T11:30:34.666Z,21.42
2023-06-27T11:33:37.571Z,21.40
2023-06-27T11:36:40.729Z,21.40
2023-06-27T11:39:53.171Z,21.38
2023-06-27T11:43:06.734Z,21.31
2023-06-27T11:46:09.553Z,21.29
2023-06-27T11:49:12.287Z,21.31
2023-06-27T11:52:15.024Z,21.29
2023-06-27T11:55:19.396Z,21.31
2023-06-27T11:58:31.878Z,21.34
2023-06-27T12:01:34.924Z,21.33
2023-06-27T12:04:37.729Z,21.36
2023-06-27T12:07:40.530Z,21.37
2023-06-27T12:10:55.362Z,21.30
2023-06-27T12:13:58.135Z,21.33
2023-06-27T12:17:02.779Z,21.34
2023-06-27T12:20:06.968Z,21.33
2023-06-27T12:23:09.916Z,21.35
2023-06-27T12:26:14.055Z,21.34
2023-06-27T12:29:19.795Z,21.37
2023-06-27T12:32:23.323Z,21.43
2023-06-27T12:35:26.920Z,21.51
2023-06-27T12:38:29.689Z,21.63
2023-06-27T12:41:34.018Z,21.61
2023-06-27T12:44:42.224Z,21.53
2023-06-27T12:47:45.363Z,21.52
2023-06-27T12:50:48.183Z,21.60
2023-06-27T12:53:51.023Z,21.64
2023-06-27T12:56:55.147Z,21.66
2023-06-27T12:59:57.851Z,21.61
2023-06-27T13:03:12.550Z,21.63
2023-06-27T13:06:20.152Z,21.73
2023-06-27T13:09:22.941Z,21.66
2023-06-27T13:12:27.113Z,21.63
2023-06-27T13:15:35.967Z,21.66
2023-06-27T13:18:46.156Z,21.61
2023-06-27T13:21:49.063Z,21.62
2023-06-27T13:24:51.836Z,21.58
2023-06-27T13:27:58.964Z,21.56
2023-06-27T13:31:01.792Z,21.55
2023-06-27T13:34:05.222Z,21.54
2023-06-27T13:37:08.256Z,21.53
2023-06-27T13:40:12.626Z,21.53
2023-06-27T13:43:16.866Z,21.54
2023-06-27T13:46:20.117Z,21.54
2023-06-27T13:49:22.961Z,21.56
2023-06-27T13:52:25.713Z,21.58
2023-06-27T13:55:28.741Z,21.56
2023-06-27T13:58:33.086Z,21.67
2023-06-27T14:01:35.811Z,21.72
2023-06-27T14:04:39.849Z,21.75
2023-06-27T14:07:42.645Z,21.77
2023-06-27T14:10:46.322Z,21.76
2023-06-27T14:13:52.134Z,21.72
2023-06-27T14:16:55.988Z,21.67
2023-06-27T14:19:58.850Z,21.65
2023-06-27T14:23:02.063Z,21.63
2023-06-27T14:26:05.095Z,21.64
2023-06-27T14:29:09.212Z,21.64
2023-06-27T14:32:11.984Z,21.61
2023-06-27T14:35:14.755Z,21.64
2023-06-27T14:38:17.566Z,21.65
2023-06-27T14:41:20.343Z,21.65
2023-06-27T14:44:24.545Z,21.62
2023-06-27T14:47:27.401Z,21.62
2023-06-27T14:50:30.121Z,21.62
2023-06-27T14:53:32.956Z,21.64
2023-06-27T14:56:36.281Z,21.61
2023-06-27T14:59:40.838Z,21.61
2023-06-27T15:02:43.793Z,21.65
2023-06-27T15:05:46.596Z,21.65
2023-06-27T15:08:50.188Z,21.65
2023-06-27T15:11:53.053Z,21.66
2023-06-27T15:14:57.188Z,21.65
2023-06-27T15:17:59.995Z,21.64
2023-06-27T15:21:02.876Z,21.64
2023-06-27T15:24:06.399Z,21.63
2023-06-27T15:27:09.256Z,21.61
2023-06-27T15:30:15.525Z,21.61
2023-06-27T15:33:18.268Z,21.58
2023-06-27T15:36:21.040Z,21.60
2023-06-27T15:39:23.864Z,21.56
2023-06-27T15:42:27.570Z,21.56
2023-06-27T15:45:32.785Z,21.52
2023-06-27T15:48:35.579Z,21.54
2023-06-27T15:51:38.387Z,21.50
2023-06-27T15:54:41.279Z,21.51
2023-06-27T15:57:44.085Z,21.52
2023-06-27T16:00:48.180Z,21.52
2023-06-27T16:03:51.130Z,21.52
2023-06-27T16:06:55.398Z,21.50
2023-06-27T16:09:58.982Z,21.51
2023-06-27T16:13:01.792Z,21.51
2023-06-27T16:16:06.229Z,21.48
2023-06-27T16:19:08.994Z,21.49
2023-06-27T16:22:11.749Z,21.48
2023-06-27T16:25:15.752Z,21.47
2023-06-27T16:28:18.430Z,21.46
2023-06-27T16:31:22.580Z,21.47
2023-06-27T16:34:27.983Z,21.47
2023-06-27T16:37:32.944Z,21.46
2023-06-27T16:40:37.114Z,21.46
2023-06-27T16:43:39.824Z,21.44
2023-06-27T16:46:43.956Z,21.45
2023-06-27T16:49:46.652Z,21.45
2023-06-27T16:52:49.366Z,21.44
2023-06-27T16:55:52.169Z,21.43
2023-06-27T16:58:54.932Z,21.42
2023-06-27T17:02:01.165Z,21.41
2023-06-27T17:05:05.015Z,21.40
2023-06-27T17:08:07.815Z,21.41
2023-06-27T17:11:10.623Z,21.40
2023-06-27T17:14:13.449Z,21.38
2023-06-27T17:20:37.720Z,21.43
2023-06-27T17:23:40.549Z,21.40
2023-06-27T17:26:43.376Z,21.39
2023-06-27T17:29:46.103Z,21.37
2023-06-27T17:32:48.857Z,21.39
2023-06-27T17:35:52.940Z,21.37
2023-06-27T17:38:55.783Z,21.36
2023-06-27T17:41:58.503Z,21.34
2023-06-27T17:45:01.349Z,21.34
2023-06-27T17:48:04.248Z,21.34
2023-06-27T17:51:08.427Z,21.32
2023-06-27T17:54:11.241Z,21.32
2023-06-27T17:57:13.978Z,21.32
2023-06-27T18:00:17.207Z,21.29
2023-06-27T18:03:20.009Z,21.29
2023-06-27T18:06:24.186Z,21.27
2023-06-27T18:09:26.971Z,21.26
2023-06-27T18:12:31.438Z,21.24
2023-06-27T18:15:34.278Z,21.23
2023-06-27T18:18:36.948Z,21.22
2023-06-27T18:21:41.076Z,21.25
2023-06-27T18:24:44.787Z,21.25
2023-06-27T18:27:47.891Z,21.23
2023-06-27T18:30:50.885Z,21.23
2023-06-27T18:33:54.566Z,21.21
2023-06-27T18:36:59.683Z,21.22
2023-06-27T18:40:02.694Z,20.61
2023-06-27T18:43:05.433Z,20.51
2023-06-27T18:46:08.196Z,20.44
2023-06-27T18:49:10.896Z,20.41
2023-06-27T18:52:15.185Z,20.38
2023-06-27T18:55:18.527Z,20.35
2023-06-27T18:58:21.310Z,20.29
2023-06-27T19:01:24.203Z,20.28
2023-06-27T19:04:27.451Z,20.08
2023-06-27T19:07:31.654Z,20.22
2023-06-27T19:10:34.396Z,20.08
2023-06-27T19:13:37.177Z,20.13
2023-06-27T19:16:40.131Z,20.13
2023-06-27T19:19:45.653Z,20.11
2023-06-27T19:22:51.348Z,20.14
2023-06-27T19:25:55.977Z,20.07
2023-06-27T19:28:58.684Z,20.05
2023-06-27T19:32:01.733Z,20.07
2023-06-27T19:35:04.621Z,20.02
2023-06-27T19:38:08.739Z,19.99
2023-06-27T19:41:11.481Z,19.90
2023-06-27T19:44:14.681Z,19.79
2023-06-27T19:47:18.126Z,19.85
2023-06-27T19:50:20.932Z,19.85
2023-06-27T19:53:25.130Z,19.70
2023-06-27T19:56:27.884Z,19.70
2023-06-27T19:59:30.692Z,19.65
2023-06-27T20:02:33.437Z,19.60
2023-06-27T20:05:40.392Z,19.66
2023-06-27T20:08:44.564Z,19.66
2023-06-27T20:11:47.371Z,19.66
2023-06-27T20:14:50.165Z,19.45
2023-06-27T20:17:52.991Z,19.46
2023-06-27T20:20:55.799Z,19.49
2023-06-27T20:23:59.935Z,19.59
2023-06-27T20:27:04.099Z,19.55
2023-06-27T20:30:07.705Z,19.56
2023-06-27T20:33:10.399Z,19.45
2023-06-27T20:36:15.582Z,19.61
2023-06-27T20:39:19.704Z,19.59
2023-06-27T20:42:22.502Z,19.61
2023-06-27T20:45:25.282Z,19.62
2023-06-27T20:48:28.054Z,19.58
2023-06-27T20:51:30.807Z,19.57
2023-06-27T20:54:34.899Z,19.53
2023-06-27T20:57:37.652Z,19.58
2023-06-27T21:00:43.677Z,19.57
2023-06-27T21:03:46.734Z,19.46
2023-06-27T21:06:49.596Z,19.49
2023-06-27T21:09:53.768Z,19.47
2023-06-27T21:12:56.462Z,19.46
2023-06-27T21:15:59.195Z,19.47
2023-06-27T21:19:01.960Z,19.48
2023-06-27T21:22:04.804Z,19.42
2023-06-27T21:25:09.565Z,19.44
2023-06-27T21:28:12.245Z,19.39
2023-06-27T21:31:16.015Z,19.31
2023-06-27T21:34:19.756Z,19.28
2023-06-27T21:37:22.642Z,19.31
2023-06-27T21:40:26.851Z,19.29
2023-06-27T21:43:29.619Z,19.27
2023-06-27T21:46:32.390Z,19.13
2023-06-27T21:49:35.203Z,19.16
2023-06-27T21:52:37.965Z,19.12
2023-06-27T21:55:42.077Z,19.67
2023-06-27T21:58:44.834Z,19.87
2023-06-27T22:01:47.548Z,19.88
2023-06-27T22:04:50.607Z,19.92
2023-06-27T22:07:54.267Z,19.98
2023-06-27T22:10:59.728Z,19.96
2023-06-27T22:14:02.482Z,20.01
2023-06-27T22:17:05.593Z,20.05
2023-06-27T22:20:09.845Z,20.06
2023-06-27T22:23:12.611Z,20.04
2023-06-27T22:26:16.716Z,20.03
2023-06-27T22:29:19.474Z,20.05
2023-06-27T22:32:22.349Z,20.08
2023-06-27T22:35:25.223Z,20.09
2023-06-27T22:38:27.928Z,20.09
2023-06-27T22:41:32.126Z,20.08
2023-06-27T22:44:34.871Z,20.10
2023-06-27T22:47:38.105Z,20.09
2023-06-27T22:50:41.253Z,20.07
2023-06-27T22:53:45.347Z,20.09
2023-06-27T22:56:49.530Z,20.10
2023-06-27T22:59:52.285Z,20.11
2023-06-27T23:02:55.273Z,20.11
2023-06-27T23:05:58.144Z,20.13
2023-06-27T23:09:01.856Z,20.13
2023-06-27T23:12:06.531Z,20.13
2023-06-27T23:15:09.514Z,20.12
2023-06-27T23:18:17.995Z,20.16
2023-06-27T23:21:20.834Z,20.12
2023-06-27T23:24:28.432Z,20.13
2023-06-27T23:27:33.317Z,20.14
2023-06-27T23:30:36.744Z,20.13
2023-06-27T23:33:41.361Z,20.14
2023-06-27T23:36:46.282Z,20.16
2023-06-27T23:39:49.522Z,20.15
2023-06-27T23:42:53.627Z,20.12
2023-06-27T23:45:56.418Z,20.11
2023-06-27T23:48:59.168Z,20.12
2023-06-27T23:52:02.220Z,20.12
2023-06-27T23:55:05.562Z,20.13
2023-06-27T23:58:09.683Z,20.16
